Time;durP1;ratioP1;P1;durP2;ratioP2;P2;SDS_P1;SDS_P2;PMS_P1;PMS_P2;Temp;Humidity;BMP_temperature;BMP_pressure;BME280_temperature;BME280_humidity;BME280_pressure;Samples;Min_cycle;Max_cycle;Signal;HPM_P1;HPM_P2
2022/01/13 00:00:33;;;;;;;13.07;6.10;;;-10.30;64.90;;;;;;5037070;28;20396;-33
2022/01/13 00:02:59;;;;;;;16.65;7.00;;;-10.30;65.20;;;;;;5037157;28;20033;-36
2022/01/13 00:05:30;;;;;;;17.80;6.63;;;-10.30;65.30;;;;;;5037320;28;20040;-36
2022/01/13 00:07:57;;;;;;;19.50;6.75;;;-10.30;65.40;;;;;;5037148;28;20041;-33
2022/01/13 00:10:24;;;;;;;20.40;6.78;;;-10.30;65.50;;;;;;5037224;28;20056;-33
2022/01/13 00:12:57;;;;;;;18.50;7.40;;;-10.30;65.40;;;;;;5036962;28;20021;-33
2022/01/13 00:15:36;;;;;;;19.60;7.05;;;-10.30;65.50;;;;;;5037323;28;20041;-33
2022/01/13 00:18:09;;;;;;;13.18;6.30;;;-10.30;65.50;;;;;;5036898;28;20437;-36
2022/01/13 00:20:58;;;;;;;15.73;6.43;;;-10.40;65.40;;;;;;5036893;28;20099;-33
2022/01/13 00:23:41;;;;;;;16.70;6.57;;;-10.40;65.60;;;;;;5036721;28;20325;-36
2022/01/13 00:26:17;;;;;;;20.77;6.50;;;-10.40;65.60;;;;;;5036707;28;20026;-33
2022/01/13 00:28:45;;;;;;;13.30;6.47;;;-10.40;65.50;;;;;;5037092;28;20064;-36
2022/01/13 00:31:11;;;;;;;15.95;7.05;;;-10.40;65.60;;;;;;5036606;28;20033;-36
2022/01/13 00:33:43;;;;;;;13.13;6.63;;;-10.50;65.60;;;;;;5036966;28;20037;-36
2022/01/13 00:36:08;;;;;;;13.25;6.38;;;-10.50;65.70;;;;;;5036294;28;20033;-33
2022/01/13 00:38:34;;;;;;;15.55;7.15;;;-10.50;65.70;;;;;;5036450;28;20040;-33
2022/01/13 00:41:00;;;;;;;13.10;5.68;;;-10.50;65.60;;;;;;5036555;28;20291;-36
2022/01/13 00:43:26;;;;;;;15.73;7.03;;;-10.50;65.60;;;;;;5036756;28;20022;-36
2022/01/13 00:45:51;;;;;;;12.88;6.40;;;-10.60;65.60;;;;;;5035937;28;20402;-37
2022/01/13 00:48:18;;;;;;;15.63;6.60;;;-10.60;65.80;;;;;;5036198;28;20064;-33
2022/01/13 00:50:44;;;;;;;14.48;6.75;;;-10.60;66.10;;;;;;5036006;28;20064;-36
2022/01/13 00:53:09;;;;;;;15.30;6.70;;;-10.60;66.10;;;;;;5036251;28;20321;-37
2022/01/13 00:55:48;;;;;;;14.38;6.80;;;-10.60;66.10;;;;;;5036081;28;20060;-36
2022/01/13 00:58:14;;;;;;;15.13;6.90;;;-10.60;66.10;;;;;;5036370;28;20506;-33
2022/01/13 01:00:41;;;;;;;16.05;7.32;;;-10.60;65.90;;;;;;5036318;28;20076;-33
2022/01/13 01:03:07;;;;;;;15.65;6.60;;;-10.60;65.90;;;;;;5036377;28;20417;-32
2022/01/13 01:05:34;;;;;;;16.38;6.65;;;-10.70;65.80;;;;;;5035970;28;20025;-33
2022/01/13 01:08:05;;;;;;;21.80;6.60;;;-10.70;65.80;;;;;;5036431;28;20029;-33
2022/01/13 01:10:30;;;;;;;;;;;-10.80;66.00;;;;;;5036753;28;20036;-36
2022/01/13 01:12:56;;;;;;;15.10;6.63;;;-10.80;66.10;;;;;;5035977;28;19905;-33
2022/01/13 01:15:23;;;;;;;21.38;7.10;;;-10.80;66.20;;;;;;5036283;28;20033;-32
2022/01/13 01:17:55;;;;;;;18.10;7.90;;;-10.80;66.30;;;;;;5036195;28;20029;-32
2022/01/13 01:20:22;;;;;;;21.40;8.15;;;-10.90;66.30;;;;;;5036194;28;20029;-33
2022/01/13 01:25:36;;;;;;;17.30;7.20;;;-10.90;66.30;;;;;;5036116;28;20084;-36
2022/01/13 01:28:02;;;;;;;17.92;7.85;;;-10.90;66.20;;;;;;5035746;28;20030;-36
2022/01/13 01:30:39;;;;;;;18.85;7.80;;;-11.00;66.10;;;;;;5035850;28;20048;-32
2022/01/13 01:33:07;;;;;;;18.25;7.80;;;-11.00;66.20;;;;;;5036182;28;20376;-36
2022/01/13 01:35:33;;;;;;;15.48;7.53;;;-11.00;66.30;;;;;;5036079;28;20117;-36
2022/01/13 01:37:58;;;;;;;15.40;7.90;;;-11.10;66.30;;;;;;5035618;28;20029;-32
2022/01/13 01:40:26;;;;;;;17.95;7.80;;;-11.10;66.40;;;;;;5035945;28;20038;-36
2022/01/13 01:42:51;;;;;;;24.13;8.07;;;-11.10;66.60;;;;;;5035942;28;20042;-36
2022/01/13 01:45:19;;;;;;;20.67;7.80;;;-11.10;66.60;;;;;;5035255;28;20033;-32
2022/01/13 01:47:45;;;;;;;20.02;8.38;;;-11.20;66.50;;;;;;5036071;28;20326;-36
2022/01/13 01:50:20;;;;;;;20.65;8.57;;;-11.20;66.60;;;;;;5035150;28;20057;-32
2022/01/13 01:52:48;;;;;;;21.55;8.65;;;-11.20;66.60;;;;;;5035908;28;20033;-33
2022/01/13 01:55:15;;;;;;;24.23;8.38;;;-11.20;66.60;;;;;;5035772;28;20049;-32
2022/01/13 01:57:43;;;;;;;24.75;8.57;;;-11.20;66.60;;;;;;5035825;28;20440;-32
2022/01/13 02:00:12;;;;;;;19.60;9.00;;;-11.20;66.50;;;;;;5035624;28;20033;-36
2022/01/13 02:02:38;;;;;;;24.30;9.13;;;-11.30;66.60;;;;;;5035521;28;20152;-33
2022/01/13 02:05:05;;;;;;;21.55;8.88;;;-11.30;66.60;;;;;;5037003;28;20032;-32
2022/01/13 02:07:30;;;;;;;19.90;9.15;;;-11.30;66.60;;;;;;5039560;28;20036;-32
2022/01/13 02:09:56;;;;;;;20.00;8.38;;;-11.20;66.70;;;;;;5039409;28;20029;-33
2022/01/13 02:12:33;;;;;;;22.15;9.57;;;-11.30;66.60;;;;;;5039605;28;20022;-36
2022/01/13 02:15:17;;;;;;;23.38;9.13;;;-11.30;66.60;;;;;;5038985;28;20302;-36
2022/01/13 02:17:43;;;;;;;25.08;9.07;;;-11.30;66.60;;;;;;5039433;28;20060;-33
2022/01/13 02:20:17;;;;;;;22.30;9.10;;;-11.40;66.60;;;;;;5039383;28;20026;-35
2022/01/13 02:22:43;;;;;;;25.23;9.27;;;-11.40;66.60;;;;;;5039121;28;20483;-36
2022/01/13 02:25:13;;;;;;;24.80;10.18;;;-11.40;66.70;;;;;;5039402;28;20038;-33
2022/01/13 02:27:38;;;;;;;19.38;9.15;;;-11.40;66.50;;;;;;5039035;28;20022;-36
2022/01/13 02:30:04;;;;;;;26.40;11.15;;;-11.40;66.70;;;;;;5039264;28;20125;-33
2022/01/13 02:32:30;;;;;;;26.02;8.45;;;-11.40;66.80;;;;;;5038837;28;20033;-37
2022/01/13 02:34:56;;;;;;;25.15;10.05;;;-11.40;66.70;;;;;;5038967;28;20122;-35
2022/01/13 02:37:21;;;;;;;27.60;9.77;;;-11.50;66.60;;;;;;5039050;28;20052;-32
2022/01/13 02:39:47;;;;;;;27.77;10.43;;;-11.40;66.70;;;;;;5038863;28;20052;-36
2022/01/13 02:42:14;;;;;;;31.90;9.70;;;-11.50;66.60;;;;;;5038994;28;20467;-33
2022/01/13 02:44:49;;;;;;;26.30;10.18;;;-11.50;66.70;;;;;;5038737;28;20036;-33
2022/01/13 02:47:34;;;;;;;24.92;9.95;;;-11.50;66.70;;;;;;5038784;28;20369;-37
2022/01/13 02:50:02;;;;;;;27.00;9.93;;;-11.50;66.80;;;;;;5038161;28;20099;-33
2022/01/13 02:52:28;;;;;;;28.15;10.88;;;-11.50;66.80;;;;;;5038802;28;20029;-36
2022/01/13 02:54:53;;;;;;;25.88;10.80;;;-11.60;66.90;;;;;;5038668;28;20107;-35
2022/01/13 02:57:19;;;;;;;32.83;10.85;;;-11.50;67.00;;;;;;5038420;28;20014;-36
2022/01/13 02:59:45;;;;;;;21.58;11.05;;;-11.50;66.80;;;;;;5038067;28;20037;-33
2022/01/13 03:02:10;;;;;;;26.52;10.70;;;-11.60;66.60;;;;;;5037318;28;20071;-33
2022/01/13 03:04:36;;;;;;;30.48;10.88;;;-11.60;66.70;;;;;;5038112;28;20112;-36
2022/01/13 03:07:03;;;;;;;24.63;10.70;;;-11.60;66.70;;;;;;5038616;28;20043;-36
2022/01/13 03:09:29;;;;;;;30.65;10.98;;;-11.60;66.90;;;;;;5038291;28;20072;-33
2022/01/13 03:11:54;;;;;;;29.65;11.27;;;-11.60;66.80;;;;;;5038146;28;20060;-36
2022/01/13 03:14:20;;;;;;;27.50;10.93;;;-11.60;66.90;;;;;;5038452;28;20471;-33
2022/01/13 03:16:46;;;;;;;28.50;11.63;;;-11.60;67.10;;;;;;5037114;28;20021;-36
2022/01/13 03:19:11;;;;;;;24.95;10.45;;;-11.60;67.10;;;;;;5038041;28;20433;-37
2022/01/13 03:21:38;;;;;;;30.15;11.25;;;-11.60;66.90;;;;;;5037955;28;20021;-36
2022/01/13 03:24:08;;;;;;;20.58;10.13;;;-11.60;67.00;;;;;;5038269;28;20033;-33
2022/01/13 03:26:34;;;;;;;30.05;12.05;;;-11.60;67.10;;;;;;5038346;28;20021;-36
2022/01/13 03:31:37;;;;;;;30.92;11.93;;;-11.60;67.10;;;;;;5038130;28;20033;-36
2022/01/13 03:34:03;;;;;;;28.60;11.90;;;-11.60;67.10;;;;;;5037930;28;20038;-35
2022/01/13 03:36:29;;;;;;;24.10;11.48;;;-11.60;67.00;;;;;;5037738;28;20025;-37
2022/01/13 03:38:55;;;;;;;25.75;11.07;;;-11.60;67.00;;;;;;5037625;28;20107;-36
2022/01/13 03:41:22;;;;;;;26.65;11.57;;;-11.60;67.00;;;;;;5037441;28;20026;-36
2022/01/13 03:43:51;;;;;;;27.75;11.40;;;-11.60;67.00;;;;;;5037913;28;20029;-32
2022/01/13 03:46:17;;;;;;;24.05;11.27;;;-11.60;67.00;;;;;;5037110;28;20025;-36
2022/01/13 03:48:43;;;;;;;24.50;11.05;;;-11.60;66.90;;;;;;5037260;28;20048;-33
2022/01/13 03:51:09;;;;;;;30.70;11.23;;;-11.60;67.00;;;;;;5037252;28;20030;-37
2022/01/13 03:53:38;;;;;;;28.67;11.80;;;-11.60;67.20;;;;;;5037578;28;20034;-32
2022/01/13 03:56:46;;;;;;;26.02;11.02;;;-11.60;67.00;;;;;;5037203;28;20029;-36
2022/01/13 03:59:51;;;;;;;30.95;12.23;;;-11.70;67.10;;;;;;5036848;28;20072;-36
2022/01/13 04:02:16;;;;;;;30.40;10.48;;;-11.70;67.20;;;;;;5037534;28;20352;-36
2022/01/13 04:04:45;;;;;;;24.52;10.82;;;-11.70;67.20;;;;;;5037268;28;20029;-32
2022/01/13 04:07:12;;;;;;;30.63;11.65;;;-11.70;67.20;;;;;;5037091;28;20020;-37
2022/01/13 04:09:41;;;;;;;34.35;11.00;;;-11.70;67.30;;;;;;5037003;28;20038;-36
2022/01/13 04:12:10;;;;;;;32.10;11.70;;;-11.80;67.30;;;;;;5037163;28;20061;-37
2022/01/13 04:17:09;;;;;;;26.30;12.18;;;-11.80;67.30;;;;;;5037008;28;20320;-33
2022/01/13 04:19:35;;;;;;;29.02;14.30;;;-11.80;67.40;;;;;;5036934;28;20092;-36
2022/01/13 04:22:03;;;;;;;27.38;10.48;;;-11.80;67.50;;;;;;5036786;28;20029;-33
2022/01/13 04:24:28;;;;;;;28.55;11.07;;;-11.80;67.50;;;;;;5037027;28;20433;-36
2022/01/13 04:26:56;;;;;;;22.40;9.35;;;-11.80;67.60;;;;;;5037008;28;20031;-36
2022/01/13 04:29:31;;;;;;;28.15;11.02;;;-11.80;67.60;;;;;;5036548;28;20041;-36
2022/01/13 04:31:56;;;;;;;25.10;10.65;;;-11.80;67.60;;;;;;5036911;28;20026;-33
2022/01/13 04:34:22;;;;;;;34.20;11.38;;;-11.80;67.60;;;;;;5035477;28;20483;-36
2022/01/13 04:36:48;;;;;;;22.60;10.30;;;-11.80;67.60;;;;;;5036536;28;20029;-33
2022/01/13 04:39:15;;;;;;;23.45;10.10;;;-11.80;67.60;;;;;;5036606;28;20413;-33
2022/01/13 04:41:46;;;;;;;24.60;11.35;;;-11.70;67.70;;;;;;5036814;28;20022;-33
2022/01/13 04:44:14;;;;;;;30.00;11.73;;;-11.70;67.60;;;;;;5036564;28;20034;-32
2022/01/13 04:46:40;;;;;;;26.67;11.57;;;-11.80;67.50;;;;;;5036604;28;20026;-36
2022/01/13 04:49:06;;;;;;;29.77;11.23;;;-11.70;67.50;;;;;;5036663;28;20457;-33
2022/01/13 04:51:33;;;;;;;27.33;11.27;;;-11.70;67.50;;;;;;5036065;28;20068;-34
2022/01/13 04:53:59;;;;;;;25.95;12.48;;;-11.80;67.30;;;;;;5036484;28;20037;-32
2022/01/13 04:56:39;;;;;;;24.67;11.10;;;-11.80;67.40;;;;;;5036251;28;20079;-36
2022/01/13 04:59:06;;;;;;;28.02;11.88;;;-11.80;67.40;;;;;;5036498;28;20414;-36
2022/01/13 05:01:31;;;;;;;28.40;10.02;;;-11.80;67.50;;;;;;5035968;28;20116;-33
2022/01/13 05:03:57;;;;;;;23.08;10.07;;;-11.90;67.40;;;;;;5036475;28;20124;-33
2022/01/13 05:06:23;;;;;;;26.15;11.43;;;-11.90;67.50;;;;;;5035944;28;20318;-36
2022/01/13 05:08:49;;;;;;;26.58;11.85;;;-11.90;67.60;;;;;;5036243;28;20362;-37
2022/01/13 05:11:17;;;;;;;32.60;11.45;;;-12.00;67.50;;;;;;5036166;28;20029;-36
2022/01/13 05:13:43;;;;;;;29.35;12.43;;;-12.00;67.60;;;;;;5036124;28;20041;-33
2022/01/13 05:16:18;;;;;;;29.63;11.25;;;-12.00;67.70;;;;;;5035933;28;20033;-36
2022/01/13 05:24:24;;;;;;;27.15;11.63;;;-12.00;68.00;;;;;;5039676;28;20307;-33
2022/01/13 05:26:50;;;;;;;29.75;12.70;;;-12.00;68.10;;;;;;5035866;28;20022;-33
2022/01/13 05:29:20;;;;;;;23.20;9.60;;;-12.00;68.10;;;;;;5035642;28;20430;-36
2022/01/13 05:31:47;;;;;;;32.42;12.05;;;-12.00;68.20;;;;;;5035673;28;20422;-37
2022/01/13 05:34:13;;;;;;;24.65;11.25;;;-11.90;68.30;;;;;;5035582;28;20038;-34
2022/01/13 05:36:39;;;;;;;29.85;12.27;;;-11.90;68.30;;;;;;5035444;28;20037;-33
2022/01/13 05:39:05;;;;;;;33.85;12.48;;;-11.90;68.20;;;;;;5035742;28;20029;-36
2022/01/13 05:41:31;;;;;;;28.55;11.85;;;-11.90;68.20;;;;;;5038869;28;20048;-37
2022/01/13 05:43:57;;;;;;;32.25;11.80;;;-11.80;68.30;;;;;;5048158;28;20036;-36
2022/01/13 05:46:23;;;;;;;30.98;10.63;;;-11.80;68.40;;;;;;5059070;28;20436;-37
2022/01/13 05:48:49;;;;;;;29.10;10.57;;;-11.80;68.40;;;;;;5059129;28;20094;-35
2022/01/13 05:51:14;;;;;;;31.63;11.50;;;-11.70;68.40;;;;;;5059398;28;20056;-35
2022/01/13 05:53:40;;;;;;;23.27;10.57;;;-11.70;68.70;;;;;;5059508;28;20362;-36
2022/01/13 05:56:06;;;;;;;43.55;14.48;;;-11.60;68.70;;;;;;5059129;28;20025;-43
2022/01/13 05:58:32;;;;;;;28.73;10.80;;;-11.50;68.60;;;;;;5059289;28;20033;-43
2022/01/13 06:00:57;;;;;;;31.85;11.55;;;-11.50;68.50;;;;;;5058916;28;20103;-44
2022/01/13 06:03:23;;;;;;;33.40;13.45;;;-11.50;68.50;;;;;;5059243;28;20037;-44
2022/01/13 06:05:49;;;;;;;33.10;12.20;;;-11.40;68.50;;;;;;5059238;28;20044;-44
2022/01/13 06:08:14;;;;;;;34.47;13.25;;;-11.30;68.60;;;;;;5059189;28;20051;-37
2022/01/13 06:10:44;;;;;;;28.25;12.90;;;-11.20;68.60;;;;;;5057944;28;20044;-38
2022/01/13 06:13:10;;;;;;;31.73;14.85;;;-11.20;68.50;;;;;;5059002;28;20025;-44
2022/01/13 06:15:37;;;;;;;31.95;13.40;;;-11.10;68.60;;;;;;5058543;28;20040;-44
2022/01/13 06:18:03;;;;;;;34.67;15.20;;;-11.00;68.70;;;;;;5059430;28;20076;-37
2022/01/13 06:20:29;;;;;;;29.92;10.68;;;-10.90;68.60;;;;;;5059044;28;20417;-44
2022/01/13 06:22:54;;;;;;;23.63;11.10;;;-10.90;68.40;;;;;;5057922;28;20060;-38
2022/01/13 06:25:21;;;;;;;28.48;11.80;;;-10.80;68.40;;;;;;5053411;28;20053;-37
2022/01/13 06:27:46;;;;;;;26.67;11.00;;;-10.70;68.30;;;;;;5038952;28;20080;-37
2022/01/13 06:30:14;;;;;;;24.33;10.02;;;-10.70;68.10;;;;;;5038719;28;20037;-40
2022/01/13 06:32:41;;;;;;;24.88;10.55;;;-10.60;68.20;;;;;;5038656;28;20108;-39
2022/01/13 06:35:07;;;;;;;22.88;10.35;;;-10.50;68.20;;;;;;5038727;28;20060;-39
2022/01/13 06:37:33;;;;;;;26.33;10.43;;;-10.50;68.10;;;;;;5038683;28;20030;-39
2022/01/13 06:40:01;;;;;;;30.45;10.55;;;-10.40;68.10;;;;;;5038688;28;20037;-43
2022/01/13 06:42:27;;;;;;;21.02;9.68;;;-10.30;68.20;;;;;;5038835;28;20029;-43
2022/01/13 06:44:53;;;;;;;28.58;11.52;;;-10.20;68.10;;;;;;5038017;28;20040;-36
2022/01/13 06:47:19;;;;;;;23.63;9.00;;;-10.10;68.00;;;;;;5038573;28;20022;-40
2022/01/13 06:49:44;;;;;;;24.05;10.07;;;-10.00;67.90;;;;;;5038027;28;20060;-37
2022/01/13 06:52:10;;;;;;;21.88;9.60;;;-10.00;67.80;;;;;;5038381;28;20029;-47
2022/01/13 06:54:39;;;;;;;22.23;9.43;;;-9.90;67.80;;;;;;5036678;28;20347;-39
2022/01/13 06:57:05;;;;;;;24.90;10.85;;;-9.90;67.60;;;;;;5037698;28;20087;-33
2022/01/13 06:59:32;;;;;;;26.65;11.25;;;-9.90;68.20;;;;;;5037956;28;20037;-37
2022/01/13 07:02:00;;;;;;;30.50;13.23;;;-9.80;67.80;;;;;;5038079;28;20053;-37
2022/01/13 07:04:26;;;;;;;24.95;10.63;;;-9.80;67.70;;;;;;5037759;28;20037;-37
2022/01/13 07:06:52;;;;;;;28.25;10.75;;;-9.80;67.90;;;;;;5054161;28;20335;-33
2022/01/13 07:09:18;;;;;;;20.85;8.73;;;-9.80;68.00;;;;;;5055767;28;20033;-36
2022/01/13 07:11:45;;;;;;;22.73;8.00;;;-9.70;68.20;;;;;;5057928;28;20044;-37
2022/01/13 07:14:11;;;;;;;20.48;9.25;;;-9.70;68.20;;;;;;5052805;28;20045;-33
2022/01/13 07:16:37;;;;;;;26.02;10.15;;;-9.70;68.20;;;;;;5045049;28;20091;-33
2022/01/13 07:19:04;;;;;;;19.90;8.55;;;-9.60;68.40;;;;;;5037851;28;20043;-37
2022/01/13 07:21:30;;;;;;;17.00;7.72;;;-9.50;68.40;;;;;;5037344;28;20030;-33
2022/01/13 07:23:56;;;;;;;23.80;9.50;;;-9.50;68.50;;;;;;5037826;28;20037;-37
2022/01/13 07:26:22;;;;;;;22.35;8.55;;;-9.50;68.40;;;;;;5037388;28;20041;-33
2022/01/13 07:28:48;;;;;;;22.48;9.30;;;-9.40;68.60;;;;;;5037473;28;20052;-37
2022/01/13 07:31:14;;;;;;;24.92;8.85;;;-9.40;68.60;;;;;;5036716;28;20033;-38
2022/01/13 07:33:44;;;;;;;17.70;8.38;;;-9.30;68.80;;;;;;5037761;28;20063;-33
2022/01/13 07:36:10;;;;;;;17.90;8.02;;;-9.20;68.90;;;;;;5037278;28;20540;-33
2022/01/13 07:38:36;;;;;;;15.98;7.28;;;-9.20;68.80;;;;;;5037465;28;20048;-34
2022/01/13 07:41:02;;;;;;;19.08;7.90;;;-9.10;68.90;;;;;;5041159;28;20028;-38
2022/01/13 07:43:27;;;;;;;23.08;8.30;;;-9.00;68.90;;;;;;5057560;28;20044;-37
2022/01/13 07:45:53;;;;;;;15.85;7.40;;;-8.90;68.90;;;;;;5057156;28;20032;-33
2022/01/13 07:48:20;;;;;;;18.52;7.88;;;-8.80;68.90;;;;;;5051128;28;20088;-38
2022/01/13 07:50:47;;;;;;;14.70;7.03;;;-8.70;68.90;;;;;;5036618;28;20334;-33
2022/01/13 07:53:13;;;;;;;17.42;8.00;;;-8.60;69.00;;;;;;5046609;28;20322;-38
2022/01/13 07:55:38;;;;;;;18.23;8.00;;;-8.50;68.90;;;;;;5056816;28;20036;-37
2022/01/13 07:58:04;;;;;;;18.45;7.70;;;-8.40;69.00;;;;;;5057060;28;20365;-34
2022/01/13 08:00:30;;;;;;;18.77;7.57;;;-8.30;69.00;;;;;;5056604;28;20033;-33
2022/01/13 08:02:56;;;;;;;13.45;7.03;;;-8.20;68.90;;;;;;5038523;28;20075;-37
2022/01/13 08:05:22;;;;;;;18.35;7.22;;;-8.10;68.90;;;;;;5036936;28;20044;-33
2022/01/13 08:07:47;;;;;;;17.17;7.97;;;-8.00;68.90;;;;;;5037071;28;20112;-38
2022/01/13 08:10:13;;;;;;;14.40;7.07;;;-7.90;68.90;;;;;;5036542;28;20348;-33
2022/01/13 08:12:40;;;;;;;15.82;8.20;;;-7.70;69.00;;;;;;5037054;28;20033;-37
2022/01/13 08:15:12;;;;;;;20.05;8.05;;;-7.60;68.80;;;;;;5036704;28;20041;-41
2022/01/13 08:19:45;;;;;;;19.42;8.32;;;-7.50;68.70;;;;;;5036730;28;20037;-36
2022/01/13 08:20:27;;;;;;;21.20;7.68;;;-7.40;68.70;;;;;;5036542;28;20033;-38
2022/01/13 08:22:53;;;;;;;16.33;8.43;;;-7.30;68.60;;;;;;5036294;28;20486;-34
2022/01/13 08:25:20;;;;;;;18.30;7.47;;;-7.10;68.40;;;;;;5036454;28;20042;-34
2022/01/13 08:27:45;;;;;;;17.50;7.70;;;-7.00;68.00;;;;;;5036533;28;20029;-37
2022/01/13 08:30:12;;;;;;;17.98;9.80;;;-7.00;67.90;;;;;;5036148;28;20083;-34
2022/01/13 08:32:38;;;;;;;20.77;8.85;;;-6.90;68.00;;;;;;5036541;28;20038;-33
2022/01/13 08:35:04;;;;;;;15.23;8.30;;;-6.80;68.10;;;;;;5035789;28;20030;-33
2022/01/13 08:37:32;;;;;;;20.20;8.73;;;-6.70;67.80;;;;;;5036148;28;20422;-33
2022/01/13 08:39:58;;;;;;;16.50;8.88;;;-6.60;67.50;;;;;;5042638;28;20422;-33
2022/01/13 08:42:24;;;;;;;19.60;9.18;;;-6.60;67.50;;;;;;5056127;28;20025;-33
2022/01/13 08:44:50;;;;;;;25.25;9.55;;;-6.50;67.20;;;;;;5054924;28;20025;-36
2022/01/13 08:47:16;;;;;;;21.23;9.43;;;-6.40;67.30;;;;;;5052343;28;20389;-34
2022/01/13 08:49:41;;;;;;;22.00;8.18;;;-6.30;67.10;;;;;;5040875;28;20067;-37
2022/01/13 08:52:07;;;;;;;16.70;8.07;;;-6.20;67.10;;;;;;5036066;28;20037;-38
2022/01/13 08:54:34;;;;;;;23.17;8.93;;;-6.10;67.10;;;;;;5036011;28;20041;-37
2022/01/13 08:57:00;;;;;;;19.35;7.85;;;-6.00;66.80;;;;;;5035729;28;20025;-33
2022/01/13 08:59:27;;;;;;;17.23;8.10;;;-6.00;66.70;;;;;;5035611;28;20064;-37
2022/01/13 09:01:53;;;;;;;17.20;7.40;;;-5.90;66.10;;;;;;5035799;28;20013;-37
2022/01/13 09:04:19;;;;;;;16.27;7.30;;;-5.80;65.80;;;;;;5035409;28;20033;-34
2022/01/13 09:06:45;;;;;;;14.50;7.47;;;-5.80;65.50;;;;;;5035413;28;20071;-33
2022/01/13 09:09:13;;;;;;;19.38;8.02;;;-5.70;65.40;;;;;;5035636;28;20057;-37
2022/01/13 09:11:39;;;;;;;18.77;8.27;;;-5.70;65.30;;;;;;5038621;28;20303;-33
2022/01/13 09:14:05;;;;;;;22.95;8.43;;;-5.60;65.30;;;;;;5039095;28;20124;-33
2022/01/13 09:16:41;;;;;;;14.70;7.70;;;-5.50;65.30;;;;;;5035156;28;20032;-38
2022/01/13 09:19:11;;;;;;;24.08;10.00;;;-5.40;65.30;;;;;;5035258;28;20045;-38
2022/01/13 09:21:40;;;;;;;21.47;8.63;;;-5.30;65.40;;;;;;5035169;28;20025;-36
2022/01/13 09:24:08;;;;;;;18.17;8.68;;;-5.20;65.30;;;;;;5035546;28;20350;-33
2022/01/13 09:26:34;;;;;;;14.55;7.40;;;-5.00;65.20;;;;;;5035669;28;20104;-36
2022/01/13 09:29:00;;;;;;;14.82;6.53;;;-4.90;64.70;;;;;;5035362;28;20182;-33
2022/01/13 09:31:26;;;;;;;17.20;7.55;;;-4.70;64.40;;;;;;5034886;28;20029;-34
2022/01/13 09:33:53;;;;;;;16.65;7.22;;;-4.60;63.70;;;;;;5035514;28;20056;-37
2022/01/13 09:36:19;;;;;;;16.73;6.72;;;-4.60;63.30;;;;;;5035125;28;20072;-38
2022/01/13 09:38:44;;;;;;;18.65;8.23;;;-4.50;63.30;;;;;;5035205;28;20121;-37
2022/01/13 09:41:12;;;;;;;13.20;5.93;;;-4.40;62.70;;;;;;5034786;28;20136;-45
2022/01/13 09:43:40;;;;;;;15.55;5.50;;;-4.20;62.60;;;;;;5035280;28;20033;-45
2022/01/13 09:46:06;;;;;;;13.35;5.65;;;-4.10;62.60;;;;;;5034845;28;20049;-45
2022/01/13 09:48:31;;;;;;;11.93;5.65;;;-3.90;62.40;;;;;;5035194;28;20107;-45
2022/01/13 09:50:57;;;;;;;12.00;5.38;;;-3.80;62.00;;;;;;5034809;28;20039;-45
2022/01/13 09:53:23;;;;;;;18.83;6.50;;;-3.70;61.60;;;;;;5035852;28;20314;-43
2022/01/13 09:55:49;;;;;;;21.38;6.43;;;-3.60;61.00;;;;;;5034930;28;20030;-42
2022/01/13 09:58:15;;;;;;;18.75;6.35;;;-3.40;61.50;;;;;;5045891;28;20064;-38
2022/01/13 10:00:42;;;;;;;32.17;7.45;;;-3.30;60.50;;;;;;5054572;28;20025;-40
2022/01/13 10:03:25;;;;;;;23.27;6.68;;;-3.20;60.30;;;;;;5044589;28;20410;-40
2022/01/13 10:05:53;;;;;;;25.45;10.63;;;-3.10;59.70;;;;;;5035257;28;20030;-43
2022/01/13 10:08:38;;;;;;;19.73;6.82;;;-3.00;59.60;;;;;;5035308;28;20100;-38
2022/01/13 10:11:22;;;;;;;18.02;6.53;;;-3.00;59.20;;;;;;5043134;28;20045;-38
2022/01/13 10:16:48;;;;;;;18.30;7.88;;;-2.80;58.50;;;;;;5035132;28;20030;-37
2022/01/13 10:19:43;;;;;;;32.90;11.07;;;-2.70;58.60;;;;;;5034909;28;20061;-43
2022/01/13 10:22:14;;;;;;;27.25;9.48;;;-2.60;58.50;;;;;;5035042;28;20025;-37
2022/01/13 10:24:45;;;;;;;28.15;11.35;;;-2.60;58.80;;;;;;5033960;28;20402;-42
2022/01/13 10:27:20;;;;;;;25.25;8.80;;;-2.50;58.40;;;;;;5037335;28;20151;-43
2022/01/13 10:29:55;;;;;;;23.63;9.43;;;-2.40;58.00;;;;;;5037105;28;20025;-45
2022/01/13 10:32:31;;;;;;;19.05;9.10;;;-2.30;58.10;;;;;;5038450;28;20108;-42
2022/01/13 10:35:15;;;;;;;31.63;9.95;;;-2.20;58.50;;;;;;5038144;28;20033;-42
2022/01/13 10:37:47;;;;;;;23.58;9.68;;;-2.20;58.10;;;;;;5038465;28;20029;-39
2022/01/13 10:40:18;;;;;;;24.23;9.73;;;-2.20;58.20;;;;;;5038471;28;20021;-41
2022/01/13 10:45:40;;;;;;;24.60;11.50;;;-2.10;58.40;;;;;;5038571;28;20048;-40
2022/01/13 10:48:08;;;;;;;25.08;10.60;;;-2.10;58.50;;;;;;5038719;28;20029;-38
2022/01/13 10:50:37;;;;;;;24.30;11.30;;;-2.10;58.90;;;;;;5037414;28;20057;-38
2022/01/13 10:53:07;;;;;;;29.40;11.75;;;-2.00;59.10;;;;;;5038262;28;20104;-32
2022/01/13 10:55:40;;;;;;;25.38;10.32;;;-2.00;59.00;;;;;;5037801;28;20041;-32
2022/01/13 10:58:05;;;;;;;22.75;10.40;;;-2.00;59.10;;;;;;5038329;28;20116;-45
2022/01/13 11:00:34;;;;;;;22.15;10.75;;;-2.00;58.90;;;;;;5038171;28;20366;-33
2022/01/13 11:03:07;;;;;;;29.73;10.25;;;-2.00;59.10;;;;;;5038451;28;20373;-45
2022/01/13 11:05:44;;;;;;;32.45;12.43;;;-2.00;59.10;;;;;;5037548;28;20033;-45
2022/01/13 11:08:10;;;;;;;32.47;12.20;;;-2.00;59.70;;;;;;5038026;28;20036;-44
2022/01/13 11:10:40;;;;;;;31.70;12.10;;;-1.90;59.80;;;;;;5037985;28;20366;-45
2022/01/13 11:13:08;;;;;;;24.73;10.50;;;-1.90;59.80;;;;;;5038313;28;20029;-45
2022/01/13 11:15:38;;;;;;;21.85;9.88;;;-1.90;59.40;;;;;;5037893;28;20041;-34
2022/01/13 11:18:04;;;;;;;26.45;10.30;;;-1.90;59.30;;;;;;5038310;28;20033;-45
2022/01/13 11:20:30;;;;;;;24.95;10.73;;;-1.90;59.40;;;;;;5036731;28;20029;-45
2022/01/13 11:22:57;;;;;;;27.58;11.23;;;-2.00;59.30;;;;;;5037744;28;20037;-45
2022/01/13 11:25:26;;;;;;;22.45;10.55;;;-2.00;59.40;;;;;;5037274;28;20103;-32
2022/01/13 11:27:53;;;;;;;33.92;11.95;;;-2.00;59.60;;;;;;5056896;28;20053;-33
2022/01/13 11:30:23;;;;;;;27.27;12.85;;;-2.00;59.60;;;;;;5057455;28;20025;-33
2022/01/13 11:32:50;;;;;;;27.45;13.85;;;-2.00;59.60;;;;;;5057812;28;20271;-33
2022/01/13 11:35:32;;;;;;;19.90;10.65;;;-2.00;59.70;;;;;;5057301;28;20033;-45
2022/01/13 11:38:00;;;;;;;23.08;11.02;;;-2.00;59.60;;;;;;5056165;28;20033;-34
2022/01/13 11:40:26;;;;;;;27.23;12.65;;;-2.10;59.80;;;;;;5057166;28;20044;-32
2022/01/13 11:42:52;;;;;;;21.27;11.30;;;-2.10;59.80;;;;;;5057131;28;20021;-44
2022/01/13 11:45:20;;;;;;;27.75;13.10;;;-2.10;59.90;;;;;;5057079;28;20460;-45
2022/01/13 11:47:47;;;;;;;24.42;10.90;;;-2.20;60.10;;;;;;5057057;28;20025;-45
2022/01/13 11:50:31;;;;;;;25.42;11.80;;;-2.20;60.20;;;;;;5056443;28;20352;-45
2022/01/13 11:52:57;;;;;;;24.38;11.55;;;-2.20;60.20;;;;;;5057095;28;20052;-45
2022/01/13 11:55:34;;;;;;;24.80;12.00;;;-2.20;60.30;;;;;;5056559;28;20406;-45
2022/01/13 11:58:15;;;;;;;25.02;12.43;;;-2.20;61.10;;;;;;5057095;28;20067;-35
2022/01/13 12:00:43;;;;;;;25.17;12.15;;;-2.20;60.80;;;;;;5056832;28;20029;-33
2022/01/13 12:03:21;;;;;;;26.42;12.40;;;-2.20;60.70;;;;;;5056576;28;20087;-45
2022/01/13 12:05:50;;;;;;;28.48;14.00;;;-2.30;60.90;;;;;;5056393;28;20045;-45
2022/01/13 12:08:41;;;;;;;30.40;13.52;;;-2.30;61.00;;;;;;5056460;28;20041;-33
2022/01/13 12:11:09;;;;;;;38.53;15.07;;;-2.30;61.20;;;;;;5056114;28;20342;-44
2022/01/13 12:13:38;;;;;;;30.40;13.10;;;-2.30;61.30;;;;;;5056793;28;20102;-45
2022/01/13 12:16:06;;;;;;;38.85;14.43;;;-2.40;61.30;;;;;;5047255;28;20505;-45
2022/01/13 12:19:07;;;;;;;31.92;13.90;;;-2.40;61.50;;;;;;5039180;28;20034;-45
2022/01/13 12:21:44;;;;;;;34.92;16.85;;;-2.40;61.70;;;;;;5049006;28;20155;-33
2022/01/13 12:24:18;;;;;;;31.27;15.32;;;-2.40;61.90;;;;;;5054372;28;20029;-33
2022/01/13 12:26:46;;;;;;;32.25;15.40;;;-2.50;61.90;;;;;;5056605;28;20033;-33
2022/01/13 12:29:30;;;;;;;31.80;15.70;;;-2.50;62.30;;;;;;5047936;28;20036;-44
2022/01/13 12:32:06;;;;;;;34.85;15.95;;;-2.50;62.30;;;;;;5056167;28;20043;-44
2022/01/13 12:34:35;;;;;;;32.03;14.98;;;-2.50;62.50;;;;;;5055978;28;20053;-34
2022/01/13 12:37:23;;;;;;;31.35;15.13;;;-2.50;62.80;;;;;;5056247;28;20029;-44
2022/01/13 12:40:01;;;;;;;39.58;17.20;;;-2.50;62.90;;;;;;5035944;28;20033;-45
2022/01/13 12:42:36;;;;;;;35.45;15.65;;;-2.50;63.00;;;;;;5036042;28;20109;-44
2022/01/13 12:47:49;;;;;;;37.55;17.10;;;-2.60;63.40;;;;;;5035432;28;20480;-33
2022/01/13 12:50:24;;;;;;;34.75;17.85;;;-2.60;63.60;;;;;;5034130;28;20350;-33
2022/01/13 12:52:51;;;;;;;34.80;16.05;;;-2.60;63.60;;;;;;5034657;28;20025;-34
2022/01/13 12:55:18;;;;;;;31.92;15.25;;;-2.60;63.80;;;;;;5034618;28;20033;-46